Time;durP1;ratioP1;P1;durP2;ratioP2;P2;SDS_P1;SDS_P2;PMS_P1;PMS_P2;Temp;Humidity;BMP_temperature;BMP_pressure;BME280_temperature;BME280_humidity;BME280_pressure;Samples;Min_cycle;Max_cycle;Signal;HPM_P1;HPM_P2
2022/12/31 00:01:05;;;;;;;6.47;2.20;;;;;;;;;;4958083;28;20057;-74
2022/12/31 00:03:33;;;;;;;4.38;2.10;;;;;;;;;;4957152;28;20050;-69
2022/12/31 00:05:58;;;;;;;6.60;2.00;;;;;;;;;;4952682;28;20039;-69
2022/12/31 00:08:24;;;;;;;3.20;1.70;;;;;;;;;;4953125;28;20074;-70
2022/12/31 00:10:50;;;;;;;5.28;1.77;;;;;;;;;;4944528;28;20073;-70
2022/12/31 00:13:17;;;;;;;5.35;2.08;;;;;;;;;;4951379;28;20062;-66
2022/12/31 00:15:43;;;;;;;4.53;2.05;;;;;;;;;;4957656;28;20186;-69
2022/12/31 00:18:10;;;;;;;7.25;1.90;;;;;;;;;;4952400;28;20698;-68
2022/12/31 00:20:40;;;;;;;5.55;1.95;;;;;;;;;;4948969;28;20047;-69
2022/12/31 00:23:08;;;;;;;4.70;2.17;;;;;;;;;;4956019;28;20467;-68
2022/12/31 00:25:35;;;;;;;3.35;1.70;;;;;;;;;;4950229;28;20055;-69
2022/12/31 00:28:03;;;;;;;5.63;2.00;;;;;;;;;;4956050;28;20046;-66
2022/12/31 00:30:29;;;;;;;6.93;2.22;;;;;;;;;;4950742;28;20077;-69
2022/12/31 00:32:55;;;;;;;5.70;2.08;;;;;;;;;;4952487;28;23054;-70
2022/12/31 00:35:21;;;;;;;8.13;2.50;;;;;;;;;;4951105;28;20566;-69
2022/12/31 00:37:49;;;;;;;4.78;2.00;;;;;;;;;;4954186;28;20117;-70
2022/12/31 00:40:15;;;;;;;12.95;2.38;;;;;;;;;;4951255;28;20043;-67
2022/12/31 00:42:42;;;;;;;4.60;1.90;;;;;;;;;;4949124;28;20055;-69
2022/12/31 00:45:08;;;;;;;5.38;2.00;;;;;;;;;;4948896;28;20074;-67
2022/12/31 00:47:34;;;;;;;5.15;2.00;;;;;;;;;;4951260;28;20054;-70
2022/12/31 00:49:59;;;;;;;6.40;2.20;;;;;;;;;;4951164;28;20051;-69
2022/12/31 00:52:25;;;;;;;5.75;2.08;;;;;;;;;;4955165;28;20042;-68
2022/12/31 00:54:51;;;;;;;3.75;1.73;;;;;;;;;;4957327;28;20055;-69
2022/12/31 00:57:17;;;;;;;5.85;2.03;;;;;;;;;;4956486;28;20137;-69
2022/12/31 00:59:43;;;;;;;6.03;1.80;;;;;;;;;;4951673;28;20069;-67
2022/12/31 01:02:09;;;;;;;3.45;2.00;;;;;;;;;;4956698;28;20051;-67
2022/12/31 01:04:35;;;;;;;4.30;1.73;;;;;;;;;;4952458;28;20493;-69
2022/12/31 01:07:01;;;;;;;5.65;2.20;;;;;;;;;;4959224;28;20054;-68
2022/12/31 01:09:27;;;;;;;4.65;1.70;;;;;;;;;;4957899;28;20767;-68
2022/12/31 01:11:53;;;;;;;5.93;1.73;;;;;;;;;;4958960;28;20058;-68
2022/12/31 01:14:19;;;;;;;3.97;1.90;;;;;;;;;;4957188;28;21463;-69
2022/12/31 01:16:48;;;;;;;4.10;1.88;;;;;;;;;;4953498;28;20217;-69
2022/12/31 01:19:24;;;;;;;5.07;2.03;;;;;;;;;;4950370;28;20054;-69
2022/12/31 01:21:51;;;;;;;9.73;1.92;;;;;;;;;;4953480;28;20058;-67
2022/12/31 01:24:18;;;;;;;5.78;1.92;;;;;;;;;;4952304;28;20079;-67
2022/12/31 01:26:44;;;;;;;6.10;2.00;;;;;;;;;;4959071;28;20051;-68
2022/12/31 01:29:11;;;;;;;6.75;2.08;;;;;;;;;;4953956;28;20039;-69
2022/12/31 01:31:38;;;;;;;6.03;1.77;;;;;;;;;;4945947;28;20473;-66
2022/12/31 01:34:06;;;;;;;4.32;1.90;;;;;;;;;;4953194;28;20160;-68
2022/12/31 01:36:33;;;;;;;4.13;1.70;;;;;;;;;;4954117;28;20043;-67
2022/12/31 01:39:00;;;;;;;4.43;1.65;;;;;;;;;;4955064;28;20119;-67
2022/12/31 01:41:30;;;;;;;5.88;1.90;;;;;;;;;;4950729;28;20074;-69
2022/12/31 01:43:59;;;;;;;4.40;1.60;;;;;;;;;;4942778;28;20105;-70
2022/12/31 01:46:31;;;;;;;3.78;1.55;;;;;;;;;;4952158;28;20059;-68
2022/12/31 01:49:02;;;;;;;8.05;1.73;;;;;;;;;;4951274;28;20058;-68
2022/12/31 01:51:31;;;;;;;2.90;1.52;;;;;;;;;;4954297;28;20046;-69
2022/12/31 01:53:59;;;;;;;5.10;1.88;;;;;;;;;;4952994;28;20075;-69
2022/12/31 01:56:25;;;;;;;7.07;1.90;;;;;;;;;;4956048;28;20519;-67
2022/12/31 01:58:54;;;;;;;2.85;1.58;;;;;;;;;;4955765;28;20051;-67
2022/12/31 02:01:25;;;;;;;4.65;1.67;;;;;;;;;;4949946;28;20047;-70
2022/12/31 02:03:52;;;;;;;3.40;1.60;;;;;;;;;;4956636;28;20042;-69
2022/12/31 02:06:30;;;;;;;5.63;1.65;;;;;;;;;;4952953;28;20074;-68
2022/12/31 02:08:57;;;;;;;4.45;1.88;;;;;;;;;;4953841;28;20050;-67
2022/12/31 02:11:26;;;;;;;5.43;1.85;;;;;;;;;;4956160;28;20473;-65
2022/12/31 02:13:55;;;;;;;3.80;1.67;;;;;;;;;;4950677;28;20480;-70
2022/12/31 02:16:32;;;;;;;6.80;2.03;;;;;;;;;;4954795;28;20514;-70
2022/12/31 02:19:03;;;;;;;3.25;1.60;;;;;;;;;;4955346;28;20074;-66
2022/12/31 02:21:35;;;;;;;10.25;2.00;;;;;;;;;;4952455;28;20456;-70
2022/12/31 02:24:19;;;;;;;6.63;1.70;;;;;;;;;;4956138;28;20055;-67
2022/12/31 02:26:59;;;;;;;4.20;1.65;;;;;;;;;;4952704;28;20066;-70
2022/12/31 02:29:59;;;;;;;4.57;1.70;;;;;;;;;;4952466;28;20129;-67
2022/12/31 02:32:35;;;;;;;5.13;1.77;;;;;;;;;;4953795;28;20110;-67
2022/12/31 02:35:26;;;;;;;4.97;1.58;;;;;;;;;;4957210;28;20055;-68
2022/12/31 02:37:57;;;;;;;3.47;1.75;;;;;;;;;;4942754;28;20047;-68
2022/12/31 02:40:24;;;;;;;3.92;1.73;;;;;;;;;;4950807;28;20172;-67
2022/12/31 02:42:50;;;;;;;7.40;1.50;;;;;;;;;;4954732;28;20047;-70
2022/12/31 02:45:22;;;;;;;3.38;1.60;;;;;;;;;;4957921;28;20067;-66
2022/12/31 02:48:05;;;;;;;4.72;1.83;;;;;;;;;;4958381;28;20058;-68
2022/12/31 02:50:40;;;;;;;4.32;1.75;;;;;;;;;;4950905;28;20051;-66
2022/12/31 02:53:29;;;;;;;3.20;1.52;;;;;;;;;;4951889;28;20066;-67
2022/12/31 02:56:07;;;;;;;4.60;1.80;;;;;;;;;;4955721;28;20436;-67
2022/12/31 03:04:33;;;;;;;4.78;1.63;;;;;;;;;;4951614;28;20047;-66
2022/12/31 03:07:08;;;;;;;5.47;1.70;;;;;;;;;;4952397;28;20158;-67
2022/12/31 03:09:35;;;;;;;3.05;1.60;;;;;;;;;;4953229;28;20172;-71
2022/12/31 03:14:48;;;;;;;5.50;1.75;;;;;;;;;;4952181;28;20102;-66
2022/12/31 03:17:14;;;;;;;4.43;1.67;;;;;;;;;;4960035;28;20496;-67
2022/12/31 03:22:27;;;;;;;4.80;1.67;;;;;;;;;;4952499;28;20051;-69
2022/12/31 03:27:51;;;;;;;7.95;1.92;;;;;;;;;;4948642;28;20047;-67
2022/12/31 03:30:18;;;;;;;5.35;1.70;;;;;;;;;;4950490;28;20417;-67
2022/12/31 03:32:46;;;;;;;5.13;1.98;;;;;;;;;;4952086;28;20067;-67
2022/12/31 03:35:13;;;;;;;3.28;1.83;;;;;;;;;;4954808;28;20054;-68
2022/12/31 03:37:40;;;;;;;3.75;1.83;;;;;;;;;;4952993;28;20880;-69
2022/12/31 03:40:08;;;;;;;7.78;2.10;;;;;;;;;;4951674;28;20051;-69
2022/12/31 03:42:34;;;;;;;4.38;2.03;;;;;;;;;;4956352;28;20489;-68
2022/12/31 03:45:00;;;;;;;5.78;1.92;;;;;;;;;;4954165;28;20055;-69
2022/12/31 03:47:26;;;;;;;6.15;2.00;;;;;;;;;;4941296;28;20119;-67
2022/12/31 03:49:52;;;;;;;3.60;1.98;;;;;;;;;;4950577;28;20051;-68
2022/12/31 03:52:17;;;;;;;3.70;2.30;;;;;;;;;;4956398;28;20059;-67
2022/12/31 03:54:44;;;;;;;4.72;2.30;;;;;;;;;;4953908;28;20058;-67
2022/12/31 03:57:09;;;;;;;6.68;1.83;;;;;;;;;;4955880;28;20066;-66
2022/12/31 03:59:36;;;;;;;6.97;2.10;;;;;;;;;;4948499;28;20069;-67
2022/12/31 04:02:02;;;;;;;6.25;2.65;;;;;;;;;;4955970;28;20118;-67
2022/12/31 04:04:28;;;;;;;5.25;2.13;;;;;;;;;;4951853;28;20051;-69
2022/12/31 04:06:53;;;;;;;6.50;2.40;;;;;;;;;;4958411;28;20769;-67
2022/12/31 04:09:19;;;;;;;5.55;2.58;;;;;;;;;;4952168;28;20121;-68
2022/12/31 04:11:45;;;;;;;6.60;2.10;;;;;;;;;;4952128;28;20055;-66
2022/12/31 04:14:11;;;;;;;5.70;2.08;;;;;;;;;;4948849;28;20082;-70
2022/12/31 04:16:37;;;;;;;7.70;2.05;;;;;;;;;;4949349;28;20081;-66
2022/12/31 04:19:03;;;;;;;3.58;1.92;;;;;;;;;;4957911;28;20515;-66
2022/12/31 04:21:29;;;;;;;2.90;2.00;;;;;;;;;;4952592;28;20046;-67
2022/12/31 04:23:55;;;;;;;6.63;2.17;;;;;;;;;;4952773;28;20074;-68
2022/12/31 04:26:21;;;;;;;5.60;2.20;;;;;;;;;;4947176;28;20472;-67
2022/12/31 04:28:47;;;;;;;6.38;2.20;;;;;;;;;;4958571;28;20042;-66
2022/12/31 04:31:13;;;;;;;10.00;1.90;;;;;;;;;;4955077;28;20101;-67
2022/12/31 04:33:39;;;;;;;5.63;2.38;;;;;;;;;;4957238;28;20073;-65
2022/12/31 04:36:06;;;;;;;4.00;1.90;;;;;;;;;;4959880;28;20437;-67
2022/12/31 04:38:33;;;;;;;6.45;1.83;;;;;;;;;;4955482;28;20378;-69
2022/12/31 04:41:17;;;;;;;8.52;1.88;;;;;;;;;;4956938;28;20055;-69
2022/12/31 04:43:52;;;;;;;4.78;1.77;;;;;;;;;;4958522;28;20073;-67
2022/12/31 04:46:21;;;;;;;2.83;1.42;;;;;;;;;;4953023;28;20521;-68
2022/12/31 04:48:47;;;;;;;4.63;2.00;;;;;;;;;;4951777;28;20611;-66
2022/12/31 04:51:13;;;;;;;5.97;1.77;;;;;;;;;;4958443;28;20062;-67
2022/12/31 04:53:39;;;;;;;4.13;1.92;;;;;;;;;;4957418;28;20234;-68
2022/12/31 04:56:06;;;;;;;2.95;1.73;;;;;;;;;;4956311;28;20562;-67
2022/12/31 04:58:33;;;;;;;4.25;1.98;;;;;;;;;;4957598;28;20071;-66
2022/12/31 05:00:58;;;;;;;5.63;1.98;;;;;;;;;;4960269;28;20330;-69
2022/12/31 05:03:26;;;;;;;3.25;1.85;;;;;;;;;;4956732;28;20050;-68
2022/12/31 05:05:52;;;;;;;4.03;1.85;;;;;;;;;;4953630;28;20789;-67
2022/12/31 05:08:19;;;;;;;8.00;1.95;;;;;;;;;;4953093;28;20150;-67
2022/12/31 05:10:47;;;;;;;5.55;1.92;;;;;;;;;;4953939;28;20437;-67
2022/12/31 05:13:13;;;;;;;6.78;1.60;;;;;;;;;;4955340;28;20047;-68
2022/12/31 05:15:40;;;;;;;4.72;1.95;;;;;;;;;;4950732;28;20463;-67
2022/12/31 05:18:07;;;;;;;7.35;2.00;;;;;;;;;;4952824;28;20059;-66
2022/12/31 05:20:34;;;;;;;6.20;2.15;;;;;;;;;;4956913;28;20535;-67
2022/12/31 05:23:00;;;;;;;6.38;2.03;;;;;;;;;;4956733;28;20059;-69
2022/12/31 05:25:26;;;;;;;4.03;1.70;;;;;;;;;;4956532;28;20050;-69
2022/12/31 05:27:52;;;;;;;5.10;1.80;;;;;;;;;;4958701;28;20054;-67
2022/12/31 05:30:18;;;;;;;5.10;1.60;;;;;;;;;;4957502;28;20062;-69
2022/12/31 05:32:45;;;;;;;4.53;1.60;;;;;;;;;;4953863;28;20047;-67
2022/12/31 05:35:11;;;;;;;6.35;2.17;;;;;;;;;;4950735;28;20066;-67
2022/12/31 05:37:38;;;;;;;4.07;1.90;;;;;;;;;;4952965;28;20129;-67
2022/12/31 05:40:05;;;;;;;5.13;1.70;;;;;;;;;;4955558;28;20050;-68
2022/12/31 05:42:31;;;;;;;3.83;1.60;;;;;;;;;;4957349;28;20042;-67
2022/12/31 05:44:57;;;;;;;4.22;1.90;;;;;;;;;;4953357;28;20487;-67
2022/12/31 05:47:24;;;;;;;6.40;1.80;;;;;;;;;;4955456;28;20050;-68
2022/12/31 05:49:49;;;;;;;4.90;1.60;;;;;;;;;;4950819;28;20130;-68
2022/12/31 05:52:16;;;;;;;4.45;1.85;;;;;;;;;;4951450;28;20075;-67
2022/12/31 05:54:41;;;;;;;3.17;1.70;;;;;;;;;;4952356;28;20054;-66
2022/12/31 05:57:08;;;;;;;4.50;1.85;;;;;;;;;;4953605;28;20054;-69
2022/12/31 05:59:34;;;;;;;5.25;1.70;;;;;;;;;;4951308;28;20783;-67
2022/12/31 06:02:00;;;;;;;6.13;1.60;;;;;;;;;;4954338;28;20055;-68
2022/12/31 06:04:26;;;;;;;4.82;2.10;;;;;;;;;;4953363;28;20058;-65
2022/12/31 06:06:52;;;;;;;3.30;1.65;;;;;;;;;;4951796;28;20050;-67
2022/12/31 06:09:18;;;;;;;4.85;1.67;;;;;;;;;;4950141;28;20047;-67
2022/12/31 06:11:45;;;;;;;8.25;1.80;;;;;;;;;;4954205;28;20125;-66
2022/12/31 06:14:11;;;;;;;4.13;1.63;;;;;;;;;;4953170;28;20084;-68
2022/12/31 06:16:39;;;;;;;7.05;1.85;;;;;;;;;;4954663;28;20113;-69
2022/12/31 06:19:05;;;;;;;3.88;1.70;;;;;;;;;;4957008;28;20059;-67
2022/12/31 06:21:31;;;;;;;8.43;1.73;;;;;;;;;;4951890;28;20059;-65
2022/12/31 06:23:57;;;;;;;3.67;1.83;;;;;;;;;;4951579;28;20409;-66
2022/12/31 06:26:25;;;;;;;7.63;1.95;;;;;;;;;;4952793;28;20130;-66
2022/12/31 06:28:51;;;;;;;5.95;1.90;;;;;;;;;;4962760;28;20050;-69
2022/12/31 06:31:17;;;;;;;2.85;1.67;;;;;;;;;;4950472;28;20070;-68
2022/12/31 06:33:43;;;;;;;6.90;2.13;;;;;;;;;;4958531;28;20042;-68
2022/12/31 06:36:13;;;;;;;5.72;2.10;;;;;;;;;;4948683;28;20463;-66
2022/12/31 06:38:40;;;;;;;5.30;2.15;;;;;;;;;;4955058;28;20054;-69
2022/12/31 06:41:09;;;;;;;4.05;1.80;;;;;;;;;;4950129;28;20046;-68
2022/12/31 06:43:36;;;;;;;8.20;1.90;;;;;;;;;;4946093;28;21415;-68
2022/12/31 06:46:04;;;;;;;4.55;1.90;;;;;;;;;;4944212;28;20051;-68
2022/12/31 06:48:30;;;;;;;5.85;2.17;;;;;;;;;;4949847;28;20542;-69
2022/12/31 06:50:56;;;;;;;4.38;1.85;;;;;;;;;;4944467;28;20053;-68
2022/12/31 06:53:22;;;;;;;5.22;2.20;;;;;;;;;;4955881;28;20074;-67
2022/12/31 06:55:49;;;;;;;11.07;2.40;;;;;;;;;;4959629;28;20047;-68
2022/12/31 06:58:16;;;;;;;6.20;2.05;;;;;;;;;;4956939;28;20153;-66
2022/12/31 07:00:53;;;;;;;4.78;2.15;;;;;;;;;;4951022;28;20107;-68
2022/12/31 07:03:37;;;;;;;6.85;2.22;;;;;;;;;;4949027;28;20050;-68
2022/12/31 07:06:28;;;;;;;7.80;2.10;;;;;;;;;;4959937;28;20073;-70
2022/12/31 07:09:03;;;;;;;3.92;2.10;;;;;;;;;;4955549;28;20171;-70
2022/12/31 07:11:40;;;;;;;7.47;2.38;;;;;;;;;;4955149;28;20062;-70
2022/12/31 07:14:22;;;;;;;6.30;2.38;;;;;;;;;;4952790;28;20081;-69
2022/12/31 07:17:10;;;;;;;7.78;2.17;;;;;;;;;;4950867;28;20055;-67
2022/12/31 07:19:54;;;;;;;7.97;2.10;;;;;;;;;;4953803;28;20054;-69
2022/12/31 07:22:20;;;;;;;8.63;2.47;;;;;;;;;;4951091;28;20512;-68
2022/12/31 07:24:46;;;;;;;10.32;2.20;;;;;;;;;;4948238;28;20569;-69
2022/12/31 07:27:28;;;;;;;12.55;2.72;;;;;;;;;;4952843;28;20044;-71
2022/12/31 07:30:11;;;;;;;5.47;2.03;;;;;;;;;;4949823;28;20055;-68
2022/12/31 07:33:01;;;;;;;6.20;2.00;;;;;;;;;;4970180;28;20038;-68
2022/12/31 07:36:02;;;;;;;4.35;2.38;;;;;;;;;;4956801;28;20112;-70
2022/12/31 07:38:46;;;;;;;11.10;2.95;;;;;;;;;;4957070;28;20246;-69
2022/12/31 07:41:41;;;;;;;10.75;2.17;;;;;;;;;;4945496;28;20126;-70
2022/12/31 07:44:31;;;;;;;11.70;2.38;;;;;;;;;;4951574;28;20086;-66
2022/12/31 07:47:03;;;;;;;6.80;2.67;;;;;;;;;;4961583;28;20197;-68
2022/12/31 07:49:32;;;;;;;9.65;2.50;;;;;;;;;;4953454;28;20055;-69
2022/12/31 07:51:58;;;;;;;5.05;1.98;;;;;;;;;;4951480;28;20047;-71
2022/12/31 07:54:24;;;;;;;6.00;2.50;;;;;;;;;;4942417;28;20049;-71
2022/12/31 07:56:50;;;;;;;8.57;2.40;;;;;;;;;;4938225;28;20068;-67
2022/12/31 07:59:39;;;;;;;7.20;2.65;;;;;;;;;;4951097;28;20469;-70
2022/12/31 08:02:30;;;;;;;3.70;2.10;;;;;;;;;;4936157;28;20065;-70
2022/12/31 08:05:14;;;;;;;7.80;2.33;;;;;;;;;;4947543;28;20503;-71
2022/12/31 08:08:01;;;;;;;5.65;2.20;;;;;;;;;;4950163;28;20062;-70
2022/12/31 08:10:45;;;;;;;10.77;2.35;;;;;;;;;;4950821;28;20047;-71
2022/12/31 08:13:11;;;;;;;5.00;2.28;;;;;;;;;;4946594;28;20059;-73
2022/12/31 08:15:38;;;;;;;5.78;2.20;;;;;;;;;;4947236;28;20382;-71
2022/12/31 08:18:06;;;;;;;5.75;2.20;;;;;;;;;;4951075;28;20563;-70
2022/12/31 08:20:44;;;;;;;10.45;2.95;;;;;;;;;;4951732;28;20051;-68
2022/12/31 08:23:23;;;;;;;5.55;2.58;;;;;;;;;;4948326;28;20161;-69
2022/12/31 08:26:16;;;;;;;9.98;2.80;;;;;;;;;;4952775;28;20440;-69
2022/12/31 08:29:16;;;;;;;8.52;3.10;;;;;;;;;;4950309;28;20051;-68
2022/12/31 08:31:57;;;;;;;8.18;2.75;;;;;;;;;;4943611;28;20476;-72
2022/12/31 08:34:46;;;;;;;7.72;2.63;;;;;;;;;;4956177;28;20086;-71
2022/12/31 08:37:17;;;;;;;9.35;2.88;;;;;;;;;;4949744;28;20050;-69
2022/12/31 08:40:20;;;;;;;5.93;3.00;;;;;;;;;;4950944;28;20039;-70
2022/12/31 08:43:04;;;;;;;8.02;3.40;;;;;;;;;;4946848;28;20054;-70
2022/12/31 08:45:40;;;;;;;10.38;3.95;;;;;;;;;;4954411;28;20058;-69
2022/12/31 08:48:29;;;;;;;14.40;5.18;;;;;;;;;;4951336;28;20105;-71
2022/12/31 08:50:55;;;;;;;16.60;4.65;;;;;;;;;;4944424;28;20055;-74
2022/12/31 08:53:22;;;;;;;8.82;4.53;;;;;;;;;;4952766;28;20120;-73
2022/12/31 08:55:55;;;;;;;9.57;3.50;;;;;;;;;;4947714;28;20062;-70
2022/12/31 08:58:27;;;;;;;8.32;3.20;;;;;;;;;;4951418;28;20051;-71
2022/12/31 09:00:56;;;;;;;8.20;3.40;;;;;;;;;;4935633;28;23686;-71
2022/12/31 09:03:34;;;;;;;8.98;3.22;;;;;;;;;;4943940;28;20223;-70
2022/12/31 09:06:22;;;;;;;8.10;3.20;;;;;;;;;;4942123;28;20058;-72
2022/12/31 09:09:10;;;;;;;12.00;2.75;;;;;;;;;;4949563;28;20062;-69
2022/12/31 09:11:58;;;;;;;10.50;3.75;;;;;;;;;;4948628;28;20481;-69
2022/12/31 09:14:41;;;;;;;8.63;3.00;;;;;;;;;;4953883;28;20053;-69
2022/12/31 09:17:19;;;;;;;6.43;3.33;;;;;;;;;;4956780;28;20133;-69
2022/12/31 09:19:45;;;;;;;6.35;2.70;;;;;;;;;;4949661;28;20062;-73
2022/12/31 09:22:12;;;;;;;6.22;2.60;;;;;;;;;;4945368;28;20050;-69
2022/12/31 09:24:38;;;;;;;12.20;3.30;;;;;;;;;;4943552;28;20867;-72
2022/12/31 09:27:22;;;;;;;12.60;2.95;;;;;;;;;;4936671;28;20473;-71
2022/12/31 09:29:56;;;;;;;9.45;3.08;;;;;;;;;;4958582;28;20050;-70
2022/12/31 09:32:29;;;;;;;8.98;2.67;;;;;;;;;;4945439;28;20544;-69
2022/12/31 09:35:10;;;;;;;7.38;2.60;;;;;;;;;;4955665;28;20047;-71
2022/12/31 09:37:47;;;;;;;10.10;2.70;;;;;;;;;;4959213;28;20046;-71
2022/12/31 09:40:24;;;;;;;7.10;2.30;;;;;;;;;;4957859;28;20054;-68
2022/12/31 09:43:11;;;;;;;9.20;3.00;;;;;;;;;;4955413;28;20122;-70
2022/12/31 09:45:54;;;;;;;7.95;2.10;;;;;;;;;;4959639;28;20473;-71
2022/12/31 09:48:45;;;;;;;6.53;2.08;;;;;;;;;;4952746;28;20061;-73
2022/12/31 09:51:44;;;;;;;10.13;2.35;;;;;;;;;;4954984;28;20065;-71
2022/12/31 09:54:10;;;;;;;8.73;2.28;;;;;;;;;;4957455;28;20165;-69
2022/12/31 09:56:44;;;;;;;6.15;2.05;;;;;;;;;;4957592;28;20134;-70
2022/12/31 09:59:21;;;;;;;6.80;2.38;;;;;;;;;;4968945;28;20055;-69
2022/12/31 10:01:57;;;;;;;6.60;2.28;;;;;;;;;;4962218;28;20090;-69
2022/12/31 10:05:02;;;;;;;7.28;1.95;;;;;;;;;;4949835;28;20061;-72
2022/12/31 10:08:05;;;;;;;5.40;2.20;;;;;;;;;;4945026;28;20241;-69
2022/12/31 10:10:37;;;;;;;6.93;2.15;;;;;;;;;;4951490;28;20057;-71
2022/12/31 10:13:39;;;;;;;6.13;2.80;;;;;;;;;;4950852;28;20054;-70
2022/12/31 10:16:50;;;;;;;4.20;2.30;;;;;;;;;;4954529;28;20055;-74
2022/12/31 10:19:22;;;;;;;8.82;2.47;;;;;;;;;;4957187;28;20051;-69
2022/12/31 10:22:21;;;;;;;7.82;2.35;;;;;;;;;;4955341;28;20066;-72
2022/12/31 10:25:18;;;;;;;11.43;2.55;;;;;;;;;;4949909;28;20054;-70
2022/12/31 10:27:53;;;;;;;5.38;2.25;;;;;;;;;;4947717;28;20605;-70
2022/12/31 10:30:23;;;;;;;5.78;2.50;;;;;;;;;;4947407;28;20370;-70
2022/12/31 10:33:06;;;;;;;8.27;2.55;;;;;;;;;;4946630;28;20551;-71
2022/12/31 10:35:52;;;;;;;7.60;2.60;;;;;;;;;;4948128;28;20114;-70
2022/12/31 10:38:51;;;;;;;4.57;2.15;;;;;;;;;;4949531;28;20165;-71
2022/12/31 10:41:41;;;;;;;6.60;2.63;;;;;;;;;;4951335;28;20055;-70
2022/12/31 10:44:26;;;;;;;4.43;2.47;;;;;;;;;;4947615;28;20054;-72
2022/12/31 10:47:18;;;;;;;6.85;2.50;;;;;;;;;;4955978;28;20051;-73
2022/12/31 10:49:59;;;;;;;4.63;2.58;;;;;;;;;;4939884;28;20965;-73
2022/12/31 10:52:34;;;;;;;9.30;2.70;;;;;;;;;;4954227;28;20051;-72
2022/12/31 10:55:17;;;;;;;8.32;2.58;;;;;;;;;;4950018;28;20058;-72
2022/12/31 10:58:02;;;;;;;7.07;2.45;;;;;;;;;;4944772;28;20078;-72
2022/12/31 11:00:42;;;;;;;7.22;2.00;;;;;;;;;;4939856;28;20062;-71
2022/12/31 11:03:33;;;;;;;4.18;1.92;;;;;;;;;;4948884;28;20047;-72
2022/12/31 11:06:29;;;;;;;4.20;1.63;;;;;;;;;;4946436;28;20043;-71
2022/12/31 11:09:33;;;;;;;4.95;1.83;;;;;;;;;;4940255;28;20054;-72
2022/12/31 11:12:18;;;;;;;8.35;2.10;;;;;;;;;;4947236;28;20057;-71
2022/12/31 11:15:11;;;;;;;5.68;1.92;;;;;;;;;;4946754;28;20529;-73
2022/12/31 11:17:52;;;;;;;3.70;2.03;;;;;;;;;;4939218;28;20817;-73
2022/12/31 11:20:18;;;;;;;6.07;2.00;;;;;;;;;;4928246;28;20637;-74
2022/12/31 11:22:56;;;;;;;7.78;1.90;;;;;;;;;;4929478;28;20047;-73
2022/12/31 11:25:34;;;;;;;7.35;2.10;;;;;;;;;;4939528;28;20055;-73
2022/12/31 11:28:09;;;;;;;7.28;2.67;;;;;;;;;;4948782;28;20427;-72
2022/12/31 11:30:47;;;;;;;7.40;2.22;;;;;;;;;;4946637;28;20054;-70
2022/12/31 11:33:44;;;;;;;5.13;2.22;;;;;;;;;;4951199;28;20058;-77
2022/12/31 11:36:40;;;;;;;6.07;2.20;;;;;;;;;;4948502;28;20584;-70
2022/12/31 11:39:32;;;;;;;10.63;2.65;;;;;;;;;;4949196;28;20069;-71
2022/12/31 11:42:18;;;;;;;6.15;1.90;;;;;;;;;;4955188;28;20947;-72
2022/12/31 11:45:10;;;;;;;10.00;2.78;;;;;;;;;;4948776;28;20039;-69
2022/12/31 11:48:03;;;;;;;7.57;2.25;;;;;;;;;;4954282;28;20074;-71
2022/12/31 11:50:35;;;;;;;8.00;2.22;;;;;;;;;;4959324;28;20047;-69
2022/12/31 11:53:40;;;;;;;4.55;2.15;;;;;;;;;;4956345;28;20054;-71
2022/12/31 11:56:20;;;;;;;8.60;2.17;;;;;;;;;;4961346;28;20054;-71
2022/12/31 11:58:50;;;;;;;5.70;2.17;;;;;;;;;;4962935;28;20725;-69
2022/12/31 12:01:50;;;;;;;6.53;2.30;;;;;;;;;;4959271;28;20042;-71
2022/12/31 12:04:18;;;;;;;7.55;2.50;;;;;;;;;;4961872;28;21467;-72
2022/12/31 12:06:44;;;;;;;6.82;2.40;;;;;;;;;;4959914;28;20058;-73
2022/12/31 12:09:16;;;;;;;6.22;2.33;;;;;;;;;;4958393;28;20042;-71
2022/12/31 12:11:42;;;;;;;7.35;2.50;;;;;;;;;;4953847;28;20047;-71
2022/12/31 12:14:27;;;;;;;6.57;2.80;;;;;;;;;;4962160;28;20109;-71
2022/12/31 12:16:55;;;;;;;4.40;2.22;;;;;;;;;;4959365;28;20089;-70
2022/12/31 12:19:25;;;;;;;5.45;2.42;;;;;;;;;;4949369;28;20050;-69
2022/12/31 12:21:52;;;;;;;6.55;2.10;;;;;;;;;;4955292;28;20068;-69
2022/12/31 12:24:25;;;;;;;5.70;2.08;;;;;;;;;;4962154;28;20438;-70
2022/12/31 12:26:51;;;;;;;8.90;2.42;;;;;;;;;;4959502;28;20369;-72
2022/12/31 12:29:20;;;;;;;8.13;1.95;;;;;;;;;;4953912;28;20043;-70
2022/12/31 12:32:03;;;;;;;6.60;2.00;;;;;;;;;;4956098;28;20050;-70
2022/12/31 12:34:35;;;;;;;6.55;2.00;;;;;;;;;;4957560;28;20091;-70
2022/12/31 12:37:02;;;;;;;7.43;2.00;;;;;;;;;;4958110;28;20063;-70
2022/12/31 12:39:30;;;;;;;8.88;2.20;;;;;;;;;;4958061;28;20055;-70
2022/12/31 12:42:12;;;;;;;6.47;2.42;;;;;;;;;;4975734;28;20058;-70
2022/12/31 12:44:40;;;;;;;5.95;1.92;;;;;;;;;;4961729;28;20082;-71
2022/12/31 12:47:16;;;;;;;5.45;1.92;;;;;;;;;;4961167;28;20046;-69
2022/12/31 12:49:47;;;;;;;8.80;1.90;;;;;;;;;;4955298;28;20966;-72
2022/12/31 12:52:55;;;;;;;6.93;1.75;;;;;;;;;;4959731;28;20070;-73
2022/12/31 12:55:36;;;;;;;5.13;1.90;;;;;;;;;;4955307;28;20183;-70
2022/12/31 12:58:14;;;;;;;5.10;1.48;;;;;;;;;;4965044;28;20058;-69
2022/12/31 13:01:19;;;;;;;6.53;2.00;;;;;;;;;;4965656;28;20046;-72
2022/12/31 13:03:57;;;;;;;12.70;2.05;;;;;;;;;;4959681;28;20085;-70
2022/12/31 13:06:41;;;;;;;6.07;1.73;;;;;;;;;;4964434;28;20058;-71
2022/12/31 13:09:38;;;;;;;6.43;2.03;;;;;;;;;;4961413;28;20043;-71
2022/12/31 13:12:34;;;;;;;6.97;1.98;;;;;;;;;;4965394;28;20496;-70
2022/12/31 13:15:20;;;;;;;7.00;1.80;;;;;;;;;;4956843;28;20046;-70
2022/12/31 13:17:52;;;;;;;6.95;1.88;;;;;;;;;;4955166;28;20051;-70
2022/12/31 13:20:46;;;;;;;4.03;1.50;;;;;;;;;;4959071;28;20051;-70
2022/12/31 13:23:16;;;;;;;7.68;1.65;;;;;;;;;;4957315;28;20102;-70
2022/12/31 13:26:06;;;;;;;5.03;1.60;;;;;;;;;;4964943;28;20058;-71
2022/12/31 13:28:33;;;;;;;5.53;1.60;;;;;;;;;;4968117;28;20077;-71
2022/12/31 13:31:02;;;;;;;4.70;1.70;;;;;;;;;;4959316;28;20454;-71
2022/12/31 13:33:35;;;;;;;8.98;2.60;;;;;;;;;;4976511;28;20047;-70
2022/12/31 13:36:06;;;;;;;9.05;2.30;;;;;;;;;;4961462;28;20524;-71
2022/12/31 13:39:00;;;;;;;8.95;2.60;;;;;;;;;;4968304;28;20377;-74
2022/12/31 13:41:33;;;;;;;7.30;1.60;;;;;;;;;;4965501;28;20061;-71
2022/12/31 13:44:01;;;;;;;8.02;2.15;;;;;;;;;;4962886;28;20530;-72
2022/12/31 13:46:30;;;;;;;4.97;1.58;;;;;;;;;;4963206;28;20123;-70
2022/12/31 13:49:00;;;;;;;3.05;1.58;;;;;;;;;;4963688;28;20043;-70
2022/12/31 13:51:40;;;;;;;3.60;1.40;;;;;;;;;;4957653;28;20089;-70
2022/12/31 13:54:35;;;;;;;5.47;1.77;;;;;;;;;;4976140;28;20051;-69
2022/12/31 13:57:09;;;;;;;4.80;1.63;;;;;;;;;;4964409;28;20490;-70
2022/12/31 13:59:38;;;;;;;4.82;1.95;;;;;;;;;;4964892;28;20162;-71
2022/12/31 14:02:33;;;;;;;6.22;1.83;;;;;;;;;;4957754;28;20110;-69
2022/12/31 14:05:03;;;;;;;;;;;;;;;;;;4956434;28;20105;-72
2022/12/31 14:07:42;;;;;;;4.28;1.50;;;;;;;;;;4960552;28;19933;-71
2022/12/31 14:10:12;;;;;;;6.40;1.77;;;;;;;;;;4964765;28;20156;-71
2022/12/31 14:13:25;;;;;;;6.97;1.60;;;;;;;;;;4965251;28;20130;-72
2022/12/31 14:16:02;;;;;;;6.57;1.70;;;;;;;;;;4897827;29;20533;-69
2022/12/31 14:18:34;;;;;;;9.30;1.40;;;;;;;;;;4900904;29;20474;-69
2022/12/31 14:21:12;;;;;;;8.98;1.75;;;;;;;;;;4897681;29;20972;-68
2022/12/31 14:24:04;;;;;;;5.10;1.60;;;;;;;;;;4904418;29;20044;-71
2022/12/31 14:26:36;;;;;;;6.90;1.80;;;;;;;;;;4902118;29;20120;-70
2022/12/31 14:29:32;;;;;;;7.65;1.60;;;;;;;;;;4895109;29;20134;-70
2022/12/31 14:32:12;;;;;;;6.15;1.75;;;;;;;;;;4902096;29;20139;-71
2022/12/31 14:34:52;;;;;;;6.22;1.80;;;;;;;;;;4900012;29;20056;-69
2022/12/31 14:37:59;;;;;;;4.28;1.60;;;;;;;;;;4898936;29;20044;-70
2022/12/31 14:40:52;;;;;;;4.63;1.58;;;;;;;;;;4910929;29;20056;-71
2022/12/31 14:43:56;;;;;;;5.53;1.60;;;;;;;;;;4899741;29;20677;-71
2022/12/31 14:46:58;;;;;;;5.25;1.58;;;;;;;;;;4871210;29;20052;-71
2022/12/31 14:49:45;;;;;;;6.13;1.58;;;;;;;;;;4901049;29;20068;-72
2022/12/31 14:52:14;;;;;;;5.13;1.88;;;;;;;;;;4921150;28;20563;-73
2022/12/31 14:54:40;;;;;;;8.13;1.80;;;;;;;;;;4964252;28;20054;-71
2022/12/31 14:57:15;;;;;;;8.77;1.70;;;;;;;;;;4957792;28;20043;-71
2022/12/31 14:59:54;;;;;;;5.53;1.42;;;;;;;;;;4956797;28;20055;-73
2022/12/31 15:02:32;;;;;;;6.82;1.73;;;;;;;;;;4963268;28;20564;-69
2022/12/31 15:05:15;;;;;;;4.38;1.52;;;;;;;;;;4959277;28;20047;-70
2022/12/31 15:07:47;;;;;;;6.85;1.52;;;;;;;;;;4961951;28;20054;-75
2022/12/31 15:10:50;;;;;;;4.68;1.70;;;;;;;;;;4962774;28;20492;-69
2022/12/31 15:13:59;;;;;;;4.60;1.83;;;;;;;;;;4960158;28;20047;-70
2022/12/31 15:16:49;;;;;;;8.68;1.80;;;;;;;;;;4959395;28;20050;-71
2022/12/31 15:19:18;;;;;;;5.68;1.60;;;;;;;;;;4957342;28;20066;-71
2022/12/31 15:22:26;;;;;;;4.05;1.90;;;;;;;;;;4961383;28;20047;-69
2022/12/31 15:24:53;;;;;;;5.43;1.77;;;;;;;;;;4961120;28;20051;-72
2022/12/31 15:27:36;;;;;;;4.47;1.90;;;;;;;;;;4961010;28;20401;-71
2022/12/31 15:30:05;;;;;;;6.20;1.95;;;;;;;;;;4957562;28;20755;-71
2022/12/31 15:32:38;;;;;;;4.45;1.52;;;;;;;;;;4958468;28;20493;-70
2022/12/31 15:35:20;;;;;;;;;;;;;;;;;;4958055;28;20077;-73
2022/12/31 15:38:12;;;;;;;5.82;1.83;;;;;;;;;;4954110;28;20466;-72
2022/12/31 15:40:47;;;;;;;8.75;2.50;;;;;;;;;;4935451;28;20050;-72
2022/12/31 15:43:40;;;;;;;10.38;3.13;;;;;;;;;;4959280;28;20426;-72
2022/12/31 15:46:17;;;;;;;8.77;3.30;;;;;;;;;;4958607;28;20051;-71